createdAt,value
2022-07-29T00:01:58.928Z,12.10
2022-07-29T00:06:22.095Z,2.58
2022-07-29T00:10:44.296Z,2.55
2022-07-29T00:15:06.855Z,3.00
2022-07-29T00:19:28.835Z,2.78
2022-07-29T00:23:50.835Z,2.45
2022-07-29T00:28:13.155Z,2.60
2022-07-29T00:32:35.781Z,3.17
2022-07-29T00:36:58.375Z,3.25
2022-07-29T00:41:20.576Z,4.18
2022-07-29T00:45:43.342Z,2.92
2022-07-29T00:50:07.595Z,2.85
2022-07-29T00:54:30.377Z,2.75
2022-07-29T00:58:52.795Z,3.03
2022-07-29T01:03:14.896Z,3.05
2022-07-29T01:07:38.475Z,3.75
2022-07-29T01:12:01.277Z,4.30
2022-07-29T01:16:33.084Z,4.22
2022-07-29T01:21:31.815Z,3.65
2022-07-29T01:26:33.899Z,3.63
2022-07-29T01:30:57.431Z,3.72
2022-07-29T01:35:32.735Z,3.90
2022-07-29T01:40:00.108Z,3.58
2022-07-29T01:45:05.254Z,4.25
2022-07-29T01:49:32.775Z,3.92
2022-07-29T01:54:44.076Z,4.00
2022-07-29T01:59:16.395Z,3.83
2022-07-29T02:03:40.334Z,4.10
2022-07-29T02:08:03.521Z,4.45
2022-07-29T02:12:26.834Z,4.50
2022-07-29T02:16:54.895Z,5.68
2022-07-29T02:21:25.537Z,5.43
2022-07-29T02:25:52.776Z,5.22
2022-07-29T02:30:15.536Z,6.35
2022-07-29T02:34:39.755Z,4.63
2022-07-29T02:39:04.034Z,4.80
2022-07-29T02:43:27.094Z,5.18
2022-07-29T02:47:51.739Z,5.22
2022-07-29T02:52:27.534Z,5.03
2022-07-29T02:56:53.899Z,5.20
2022-07-29T03:01:25.193Z,4.75
2022-07-29T03:05:47.175Z,5.22
2022-07-29T03:10:11.037Z,6.10
2022-07-29T03:14:37.076Z,5.80
2022-07-29T03:18:59.738Z,4.82
2022-07-29T03:23:27.183Z,4.70
2022-07-29T03:27:55.592Z,4.30
2022-07-29T03:32:21.682Z,4.53
2022-07-29T03:36:48.434Z,5.28
2022-07-29T03:41:12.834Z,4.40
2022-07-29T03:45:36.025Z,4.85
2022-07-29T03:50:06.974Z,4.80
2022-07-29T03:54:33.834Z,4.90
2022-07-29T03:58:56.793Z,4.65
2022-07-29T04:03:18.851Z,4.93
2022-07-29T04:07:41.953Z,5.03
2022-07-29T04:12:04.546Z,4.85
2022-07-29T04:16:26.776Z,5.00
2022-07-29T04:20:48.916Z,5.38
2022-07-29T04:25:11.315Z,4.78
2022-07-29T04:29:33.093Z,4.95
2022-07-29T04:33:55.290Z,4.68
2022-07-29T04:38:17.495Z,5.15
2022-07-29T04:42:43.963Z,5.45
2022-07-29T04:47:10.026Z,5.18
2022-07-29T04:51:32.394Z,4.20
2022-07-29T04:55:54.594Z,4.70
2022-07-29T05:00:16.676Z,4.13
2022-07-29T05:04:38.734Z,3.72
2022-07-29T05:09:00.573Z,4.57
2022-07-29T05:13:22.453Z,3.50
2022-07-29T05:17:44.713Z,3.47
2022-07-29T05:22:06.934Z,4.72
2022-07-29T05:26:28.934Z,3.55
2022-07-29T05:30:51.178Z,3.90
2022-07-29T05:35:14.755Z,3.50
2022-07-29T05:39:48.591Z,3.42
2022-07-29T05:44:12.711Z,4.07
2022-07-29T05:48:35.175Z,4.60
2022-07-29T05:52:57.237Z,3.97
2022-07-29T05:57:25.156Z,4.63
2022-07-29T06:01:47.182Z,4.25
2022-07-29T06:06:09.933Z,4.43
2022-07-29T06:10:31.792Z,3.72
2022-07-29T06:14:54.338Z,4.30
2022-07-29T06:19:20.514Z,4.03
2022-07-29T06:23:42.394Z,3.97
2022-07-29T06:28:05.033Z,4.10
2022-07-29T06:32:27.441Z,3.85
2022-07-29T06:36:50.833Z,3.10
2022-07-29T06:41:17.083Z,3.38
2022-07-29T06:45:42.614Z,3.42
2022-07-29T06:50:06.093Z,3.15
2022-07-29T06:54:29.773Z,3.08
2022-07-29T06:58:51.894Z,4.00
2022-07-29T07:03:14.113Z,4.03
2022-07-29T07:07:36.074Z,4.65
2022-07-29T07:11:58.272Z,3.65
2022-07-29T07:16:20.402Z,3.35
2022-07-29T07:20:42.852Z,3.05
2022-07-29T07:25:05.352Z,3.70
2022-07-29T07:29:27.497Z,3.05
2022-07-29T07:33:49.692Z,3.65
2022-07-29T07:38:11.636Z,3.00
2022-07-29T07:42:34.232Z,3.45
2022-07-29T07:46:56.233Z,3.90
2022-07-29T07:51:18.432Z,3.28
2022-07-29T07:56:09.241Z,3.17
2022-07-29T08:00:26.933Z,2.80
2022-07-29T08:04:49.133Z,2.95
2022-07-29T08:09:28.091Z,3.70
2022-07-29T08:13:51.372Z,3.03
2022-07-29T08:18:14.840Z,2.35
2022-07-29T08:22:37.093Z,2.80
2022-07-29T08:26:58.992Z,2.28
2022-07-29T08:31:20.877Z,2.60
2022-07-29T08:35:43.492Z,3.05
2022-07-29T08:40:07.457Z,3.10
2022-07-29T08:44:30.957Z,2.50
2022-07-29T08:48:53.408Z,2.75
2022-07-29T08:53:19.135Z,2.50
2022-07-29T08:57:43.436Z,2.15
2022-07-29T09:02:24.252Z,2.00
2022-07-29T09:06:50.554Z,1.90
2022-07-29T09:11:14.848Z,2.22
2022-07-29T09:15:36.914Z,2.47
2022-07-29T09:20:11.713Z,2.20
2022-07-29T09:24:48.481Z,1.80
2022-07-29T09:29:21.832Z,2.42
2022-07-29T09:33:43.853Z,2.25
2022-07-29T09:38:15.573Z,2.25
2022-07-29T09:42:37.874Z,1.90
2022-07-29T09:47:08.352Z,1.95
2022-07-29T09:51:38.295Z,2.08
2022-07-29T09:56:01.595Z,1.90
2022-07-29T10:00:24.225Z,2.15
2022-07-29T10:04:46.474Z,2.08
2022-07-29T10:09:12.534Z,2.00
2022-07-29T10:13:34.636Z,2.50
2022-07-29T10:17:58.095Z,2.08
2022-07-29T10:22:50.469Z,2.05
2022-07-29T10:27:05.413Z,1.90
2022-07-29T10:31:45.328Z,2.05
2022-07-29T10:36:28.655Z,2.25
2022-07-29T10:41:29.018Z,2.60
2022-07-29T10:46:01.701Z,2.10
2022-07-29T10:50:24.295Z,2.35
2022-07-29T10:54:51.178Z,1.98
2022-07-29T10:59:22.738Z,3.53
2022-07-29T11:03:53.579Z,2.35
2022-07-29T11:08:20.127Z,2.65
2022-07-29T11:12:43.513Z,3.00
2022-07-29T11:17:07.575Z,2.80
2022-07-29T11:21:53.438Z,2.53
2022-07-29T11:26:28.674Z,2.45
2022-07-29T11:30:54.214Z,2.40
2022-07-29T11:35:38.414Z,2.00
2022-07-29T11:40:05.133Z,2.30
2022-07-29T11:45:43.713Z,2.33
2022-07-29T11:49:54.534Z,2.38
2022-07-29T11:54:57.205Z,2.63
2022-07-29T11:59:20.633Z,2.50
2022-07-29T12:03:43.623Z,2.60
2022-07-29T12:08:22.917Z,3.22
2022-07-29T12:12:53.955Z,2.35
2022-07-29T12:17:32.814Z,2.67
2022-07-29T12:21:59.670Z,2.80
2022-07-29T12:26:25.534Z,2.78
2022-07-29T12:30:51.593Z,2.47
2022-07-29T12:35:23.153Z,2.50
2022-07-29T12:39:45.413Z,3.00
2022-07-29T12:44:07.433Z,2.50
2022-07-29T12:48:44.456Z,2.72
2022-07-29T12:53:12.973Z,2.50
2022-07-29T12:57:51.913Z,2.75
2022-07-29T13:02:24.105Z,2.58
2022-07-29T13:06:49.574Z,2.33
2022-07-29T13:11:48.183Z,2.47
2022-07-29T13:16:11.934Z,2.70
2022-07-29T13:20:34.376Z,2.58
2022-07-29T13:25:05.195Z,2.60
2022-07-29T13:29:31.456Z,2.80
2022-07-29T13:34:03.754Z,2.70
2022-07-29T13:38:30.923Z,2.78
2022-07-29T13:42:53.295Z,2.80
2022-07-29T13:47:15.374Z,2.30
2022-07-29T13:51:37.334Z,2.42
2022-07-29T13:55:59.733Z,2.40
2022-07-29T14:00:21.874Z,2.30
2022-07-29T14:04:43.687Z,2.58
2022-07-29T14:09:07.455Z,2.30
2022-07-29T14:13:29.654Z,3.40
2022-07-29T14:17:51.895Z,3.40
2022-07-29T14:22:14.158Z,3.22
2022-07-29T14:26:35.962Z,2.78
2022-07-29T14:30:57.854Z,2.92
2022-07-29T14:35:19.893Z,2.92
2022-07-29T14:39:43.382Z,2.60
2022-07-29T14:44:09.076Z,2.97
2022-07-29T14:48:31.154Z,3.80
2022-07-29T14:52:54.173Z,3.00
2022-07-29T14:57:16.574Z,3.40
2022-07-29T15:01:38.707Z,2.95
2022-07-29T15:06:00.915Z,3.58
2022-07-29T15:10:24.720Z,3.70
2022-07-29T15:14:46.935Z,4.05
2022-07-29T15:19:10.055Z,4.38
2022-07-29T15:23:32.433Z,4.35
2022-07-29T15:27:57.775Z,3.80
2022-07-29T15:32:22.853Z,4.00
2022-07-29T15:36:53.356Z,3.60
2022-07-29T15:41:16.657Z,3.47
2022-07-29T15:45:43.025Z,3.55
2022-07-29T15:50:07.494Z,3.83
2022-07-29T15:54:30.473Z,3.92
2022-07-29T15:58:52.954Z,3.85
2022-07-29T16:03:15.093Z,3.88
2022-07-29T16:07:37.976Z,3.80
2022-07-29T16:11:59.954Z,3.30
2022-07-29T16:16:22.019Z,3.35
2022-07-29T16:20:44.094Z,3.35
2022-07-29T16:25:07.094Z,3.35
2022-07-29T16:29:32.394Z,3.40
2022-07-29T16:33:55.962Z,3.63
2022-07-29T16:38:18.614Z,3.65
2022-07-29T16:42:48.407Z,3.47
2022-07-29T16:47:10.633Z,3.60
2022-07-29T16:51:34.454Z,3.28
2022-07-29T16:55:56.374Z,3.92
2022-07-29T17:00:19.310Z,3.70
2022-07-29T17:04:41.633Z,3.67
2022-07-29T17:09:09.940Z,12.60
2022-07-29T17:13:31.920Z,4.13
2022-07-29T17:17:56.505Z,3.95
2022-07-29T17:22:19.687Z,4.22
2022-07-29T17:26:43.455Z,3.90
2022-07-29T17:31:05.682Z,3.40
2022-07-29T17:35:46.675Z,3.97
2022-07-29T17:40:09.576Z,3.53
2022-07-29T17:44:32.421Z,4.53
2022-07-29T17:48:58.690Z,3.97
2022-07-29T17:53:21.414Z,3.72
2022-07-29T17:57:43.611Z,3.90
2022-07-29T18:02:06.071Z,4.05
2022-07-29T18:06:29.274Z,3.47
2022-07-29T18:10:51.896Z,4.35
2022-07-29T18:15:14.115Z,3.90
2022-07-29T18:19:36.334Z,3.60
2022-07-29T18:24:02.854Z,6.97
2022-07-29T18:28:25.416Z,3.90
2022-07-29T18:33:18.202Z,4.18
2022-07-29T18:38:01.420Z,4.40
2022-07-29T18:42:15.955Z,3.90
2022-07-29T18:46:38.446Z,3.97
2022-07-29T18:51:09.772Z,3.92
2022-07-29T18:55:32.345Z,4.20
2022-07-29T18:59:54.533Z,4.22
2022-07-29T19:04:20.578Z,4.25
2022-07-29T19:08:43.514Z,5.20
2022-07-29T19:13:06.273Z,4.05
2022-07-29T19:17:28.334Z,3.90
2022-07-29T19:21:50.374Z,4.22
2022-07-29T19:26:12.375Z,4.82
2022-07-29T19:30:42.574Z,4.72
2022-07-29T19:35:38.306Z,5.70
2022-07-29T19:40:00.493Z,5.47
2022-07-29T19:44:22.874Z,5.13
2022-07-29T19:48:45.145Z,6.03
2022-07-29T19:53:07.014Z,6.60
2022-07-29T19:57:29.893Z,5.32
2022-07-29T20:02:02.850Z,5.47
2022-07-29T20:06:24.993Z,5.85
2022-07-29T20:10:47.255Z,5.70
2022-07-29T20:15:16.512Z,5.50
2022-07-29T20:19:39.214Z,6.78
2022-07-29T20:24:02.576Z,6.38
2022-07-29T20:28:25.166Z,5.82
2022-07-29T20:32:47.295Z,6.90
2022-07-29T20:37:17.914Z,6.80
2022-07-29T20:41:39.994Z,7.20
2022-07-29T20:46:01.721Z,6.55
2022-07-29T20:50:24.661Z,6.55
2022-07-29T20:54:47.515Z,6.80
2022-07-29T20:59:09.755Z,6.35
2022-07-29T21:03:33.234Z,6.85
2022-07-29T21:07:58.319Z,6.88
2022-07-29T21:12:20.254Z,7.47
2022-07-29T21:16:42.755Z,8.52
2022-07-29T21:21:07.114Z,8.85
2022-07-29T21:25:29.575Z,8.63
2022-07-29T21:29:51.934Z,9.32
2022-07-29T21:34:14.715Z,10.00
2022-07-29T21:38:39.175Z,10.77
2022-07-29T21:43:01.155Z,11.30
2022-07-29T21:47:23.215Z,12.57
2022-07-29T21:51:45.274Z,12.57
2022-07-29T21:56:12.417Z,11.70
2022-07-29T22:00:38.355Z,11.52
2022-07-29T22:05:00.256Z,8.45
2022-07-29T22:09:22.414Z,8.55
2022-07-29T22:13:44.757Z,7.75
2022-07-29T22:18:07.175Z,8.60
2022-07-29T22:22:29.234Z,8.65
2022-07-29T22:26:51.435Z,9.32
2022-07-29T22:31:13.783Z,8.30
2022-07-29T22:35:35.903Z,8.00
2022-07-29T22:39:57.874Z,8.82
2022-07-29T22:44:20.135Z,7.80
2022-07-29T22:48:42.408Z,8.15
2022-07-29T22:53:04.415Z,8.48
2022-07-29T22:57:26.577Z,8.15
2022-07-29T23:01:49.192Z,8.75
2022-07-29T23:06:11.212Z,9.10
2022-07-29T23:10:33.334Z,9.05
2022-07-29T23:14:55.774Z,8.98
2022-07-29T23:19:17.852Z,8.63
2022-07-29T23:23:49.552Z,8.77
2022-07-29T23:28:13.273Z,7.93
2022-07-29T23:32:35.674Z,7.75
2022-07-29T23:36:58.178Z,7.30
2022-07-29T23:41:21.612Z,7.10
2022-07-29T23:45:48.465Z,6.28
2022-07-29T23:50:12.836Z,6.82
2022-07-29T23:54:35.452Z,7.40
2022-07-29T23:58:57.734Z,7.57
